Terminal Aerodrome Forecast
Issued by NWS Wakefield, VA

Home | Current Version | Previous Version | Text Only | Print | Product List | Glossary On
Versions: 1 2 3 4 5 6 7 8 9 10 11 12 13 14 15 16 17 18 19 20 21 22 23 24
000
FTUS41 KAKQ 022100 AAA
TAFSBY
TAF AMD
KSBY 022129Z 0221/0318 31010KT P6SM SCT250
     FM030000 34005KT P6SM SCT250
     FM030600 VRB03KT P6SM BKN120 BKN250
     FM031500 12005KT P6SM BKN090 OVC150=

USA.gov is the U.S. government's official web portal to all federal, state and local government web resources and services.